Dubai Fortune — H9SA — position and weather

sailwx.info

Track history (hours):
 
Tides and Currents Weather Stations Pressure Air Temp Water Temp Dewpoint Dewpoint Depression Visibility Wind Speed Wind Dir Waves Ship Positions

Dubai Fortune

Last reported at 2016-Nov-30 01:03 UTC. Time now 2016-Dec-05 14:30 UTC.
Position N 31°12' E 121°50'.

Length 188 m; draft 7 m.

Type: Cargo ship. MMSI: 353316000.

Date/timePositionNaut miles runAvg speedWind from/ knotsBaromVisibWave heightAir tempDewpointWater temp
2016-Nov-30 01:03N 31°12' E 121°50'612.6
2016-Nov-30 00:33N 31°16' E 121°45'1211.9
2016-Nov-29 23:34N 31°24' E 121°34'10 9.9
2016-Nov-29 22:33N 31°30' E 121°25'8 8.3
2016-Nov-29 21:34N 31°36' E 121°18'0 0.1
2016-Nov-29 20:33N 31°36' E 121°18'0 0.2
2016-Nov-29 19:33N 31°36' E 121°18'0 0.1
2016-Nov-29 18:33N 31°36' E 121°18'6 5.8
2016-Nov-29 17:33N 31°40' E 121°13'1010.0
2016-Nov-29 16:33N 31°46' E 121°03'2211.1
2016-Nov-29 14:33N 32°00' E 120°43'1313.3
2016-Nov-29 13:33N 32°02' E 120°28'1712.7
2016-Nov-29 12:14N 31°56' E 120°09'1112.6
2016-Nov-29 11:22N 32°01' E 119°58'  
2016-Nov-25 05:29N 32°08' E 119°55'1 0.8
2016-Nov-25 04:21N 32°07' E 119°55'0 0.0
2016-Nov-25 03:33N 32°07' E 119°55'0 0.0
2016-Nov-25 01:27N 32°07' E 119°55'0 0.0
2016-Nov-25 00:33N 32°07' E 119°55'0 0.0
2016-Nov-24 16:21N 32°07' E 119°55'0 0.0
2016-Nov-24 15:21N 32°07' E 119°55'0 0.0
2016-Nov-24 14:21N 32°07' E 119°55'0 0.0
2016-Nov-24 13:15N 32°07' E 119°55'0 0.0
2016-Nov-24 12:33N 32°07' E 119°55'0 0.0
2016-Nov-24 11:27N 32°07' E 119°55'0 0.0
2016-Nov-24 10:27N 32°07' E 119°55'0 0.0
2016-Nov-24 04:33N 32°07' E 119°55'0 0.0
2016-Nov-24 03:21N 32°07' E 119°55'0 0.0
2016-Nov-23 14:33N 32°07' E 119°55'0 0.0
2016-Nov-23 13:33N 32°07' E 119°55'0 0.0
2016-Nov-23 12:27N 32°07' E 119°55'0 0.0
2016-Nov-23 11:33N 32°07' E 119°55'0 0.0
2016-Nov-23 10:09N 32°07' E 119°55'0 0.0
2016-Nov-23 08:33N 32°07' E 119°55'0 0.0
2016-Nov-23 06:33N 32°07' E 119°55'0 0.0
2016-Nov-23 03:09N 32°07' E 119°55'0 0.0
2016-Nov-23 02:21N 32°07' E 119°55'0 0.0
2016-Nov-22 20:21N 32°07' E 119°55'0 0.0
2016-Nov-22 19:16N 32°07' E 119°55'0 0.0
2016-Nov-22 17:27N 32°07' E 119°55'0 0.0
2016-Nov-22 16:21N 32°07' E 119°55'0 0.1
2016-Nov-22 15:21N 32°07' E 119°55'0 0.0
2016-Nov-22 14:21N 32°07' E 119°55'0 0.0
2016-Nov-22 10:33N 32°07' E 119°55'0 0.0
2016-Nov-22 08:27N 32°07' E 119°55'0 0.0
2016-Nov-22 07:17N 32°07' E 119°55'0 0.0
2016-Nov-22 05:09N 32°07' E 119°55'0 0.0
2016-Nov-22 04:15N 32°07' E 119°55'0 0.0
2016-Nov-22 03:09N 32°07' E 119°55'0 0.0
2016-Nov-22 02:33N 32°07' E 119°55'0 0.0
2016-Nov-21 21:09N 32°07' E 119°55'60 3.6
2016-Nov-21 04:32N 31°47' E 121°01'15 7.6
2016-Nov-21 02:33N 31°38' E 121°15'14 7.0
2016-Nov-21 00:33N 31°28' E 121°27'7 3.6
2016-Nov-20 22:32N 31°21' E 121°30'1 0.7
2016-Nov-20 21:22N 31°21' E 121°31'0 0.0
2016-Nov-20 17:28N 31°21' E 121°31'0 0.0
2016-Nov-20 16:28N 31°21' E 121°31'0 0.0
2016-Nov-20 13:31N 31°21' E 121°31'0 0.0
2016-Nov-20 12:22N 31°21' E 121°31'0 0.0
2016-Nov-20 09:28N 31°21' E 121°31'0 0.0
2016-Nov-20 08:28N 31°21' E 121°31'0 0.0
2016-Nov-20 07:28N 31°21' E 121°31'0 0.0
2016-Nov-20 06:22N 31°21' E 121°31'0 0.0
2016-Nov-20 05:10N 31°21' E 121°31'0 0.0
2016-Nov-20 04:28N 31°21' E 121°31'0 0.0
2016-Nov-20 03:28N 31°21' E 121°31'0 0.0
2016-Nov-20 01:28N 31°21' E 121°31'  
Track history (hours):
 
Tides and Currents Weather Stations Pressure Air Temp Water Temp Dewpoint Dewpoint Depression Visibility Wind Speed Wind Dir Waves Ship Positions

Dubai Fortune

Last reported at 2016-Nov-30 01:03 UTC. Time now 2016-Dec-05 14:30 UTC.
Position N 31°12' E 121°50'.

Length 188 m; draft 7 m.

Type: Cargo ship. MMSI: 353316000.

Date/timePositionNaut miles runAvg speedWind from/ knotsBaromVisibWave heightAir tempDewpointWater temp
2016-Nov-30 01:03N 31°12' E 121°50'612.6
2016-Nov-30 00:33N 31°16' E 121°45'1211.9
2016-Nov-29 23:34N 31°24' E 121°34'10 9.9
2016-Nov-29 22:33N 31°30' E 121°25'8 8.3
2016-Nov-29 21:34N 31°36' E 121°18'0 0.1
2016-Nov-29 20:33N 31°36' E 121°18'0 0.2
2016-Nov-29 19:33N 31°36' E 121°18'0 0.1
2016-Nov-29 18:33N 31°36' E 121°18'6 5.8
2016-Nov-29 17:33N 31°40' E 121°13'1010.0
2016-Nov-29 16:33N 31°46' E 121°03'2211.1
2016-Nov-29 14:33N 32°00' E 120°43'1313.3
2016-Nov-29 13:33N 32°02' E 120°28'1712.7
2016-Nov-29 12:14N 31°56' E 120°09'1112.6
2016-Nov-29 11:22N 32°01' E 119°58'  
2016-Nov-25 05:29N 32°08' E 119°55'1 0.8
2016-Nov-25 04:21N 32°07' E 119°55'0 0.0
2016-Nov-25 03:33N 32°07' E 119°55'0 0.0
2016-Nov-25 01:27N 32°07' E 119°55'0 0.0
2016-Nov-25 00:33N 32°07' E 119°55'0 0.0
2016-Nov-24 16:21N 32°07' E 119°55'0 0.0
2016-Nov-24 15:21N 32°07' E 119°55'0 0.0
2016-Nov-24 14:21N 32°07' E 119°55'0 0.0
2016-Nov-24 13:15N 32°07' E 119°55'0 0.0
2016-Nov-24 12:33N 32°07' E 119°55'0 0.0
2016-Nov-24 11:27N 32°07' E 119°55'0 0.0
2016-Nov-24 10:27N 32°07' E 119°55'0 0.0
2016-Nov-24 04:33N 32°07' E 119°55'0 0.0
2016-Nov-24 03:21N 32°07' E 119°55'0 0.0
2016-Nov-23 14:33N 32°07' E 119°55'0 0.0
2016-Nov-23 13:33N 32°07' E 119°55'0 0.0
2016-Nov-23 12:27N 32°07' E 119°55'0 0.0
2016-Nov-23 11:33N 32°07' E 119°55'0 0.0
2016-Nov-23 10:09N 32°07' E 119°55'0 0.0
2016-Nov-23 08:33N 32°07' E 119°55'0 0.0
2016-Nov-23 06:33N 32°07' E 119°55'0 0.0
2016-Nov-23 03:09N 32°07' E 119°55'0 0.0
2016-Nov-23 02:21N 32°07' E 119°55'0 0.0
2016-Nov-22 20:21N 32°07' E 119°55'0 0.0
2016-Nov-22 19:16N 32°07' E 119°55'0 0.0
2016-Nov-22 17:27N 32°07' E 119°55'0 0.0
2016-Nov-22 16:21N 32°07' E 119°55'0 0.1
2016-Nov-22 15:21N 32°07' E 119°55'0 0.0
2016-Nov-22 14:21N 32°07' E 119°55'0 0.0
2016-Nov-22 10:33N 32°07' E 119°55'0 0.0
2016-Nov-22 08:27N 32°07' E 119°55'0 0.0
2016-Nov-22 07:17N 32°07' E 119°55'0 0.0
2016-Nov-22 05:09N 32°07' E 119°55'0 0.0
2016-Nov-22 04:15N 32°07' E 119°55'0 0.0
2016-Nov-22 03:09N 32°07' E 119°55'0 0.0
2016-Nov-22 02:33N 32°07' E 119°55'0 0.0
2016-Nov-21 21:09N 32°07' E 119°55'60 3.6
2016-Nov-21 04:32N 31°47' E 121°01'15 7.6
2016-Nov-21 02:33N 31°38' E 121°15'14 7.0
2016-Nov-21 00:33N 31°28' E 121°27'7 3.6
2016-Nov-20 22:32N 31°21' E 121°30'1 0.7
2016-Nov-20 21:22N 31°21' E 121°31'0 0.0
2016-Nov-20 17:28N 31°21' E 121°31'0 0.0
2016-Nov-20 16:28N 31°21' E 121°31'0 0.0
2016-Nov-20 13:31N 31°21' E 121°31'0 0.0
2016-Nov-20 12:22N 31°21' E 121°31'0 0.0
2016-Nov-20 09:28N 31°21' E 121°31'0 0.0
2016-Nov-20 08:28N 31°21' E 121°31'0 0.0
2016-Nov-20 07:28N 31°21' E 121°31'0 0.0
2016-Nov-20 06:22N 31°21' E 121°31'0 0.0
2016-Nov-20 05:10N 31°21' E 121°31'0 0.0
2016-Nov-20 04:28N 31°21' E 121°31'0 0.0
2016-Nov-20 03:28N 31°21' E 121°31'0 0.0
2016-Nov-20 01:28N 31°21' E 121°31'  

Dump ship's entire track history